createdAt,value
2017-11-22T13:31:12.223Z,22.07
2017-11-22T13:33:39.797Z,19.70
2017-11-22T13:36:08.110Z,14.57
2017-11-22T13:38:35.717Z,15.53
2017-11-22T13:41:03.293Z,12.57
2017-11-22T13:43:31.622Z,12.13
2017-11-22T13:45:59.176Z,15.00
2017-11-22T13:48:26.741Z,11.33
2017-11-22T13:50:54.289Z,17.57
2017-11-22T13:53:21.823Z,15.27
2017-11-22T13:55:50.141Z,16.37
2017-11-22T13:58:17.699Z,17.43
2017-11-22T14:00:45.246Z,10.30
2017-11-22T14:03:12.830Z,15.37
2017-11-22T14:05:40.430Z,13.83
2017-11-22T14:08:08.796Z,13.60
2017-11-22T14:10:36.360Z,16.27
2017-11-22T14:13:03.941Z,19.57
2017-11-22T14:15:32.294Z,19.70
2017-11-22T14:17:59.874Z,17.57
2017-11-22T14:20:28.207Z,21.87
2017-11-22T14:22:55.766Z,16.73
2017-11-22T14:25:23.380Z,14.00
2017-11-22T14:27:51.708Z,12.70
2017-11-22T14:30:19.290Z,21.43
2017-11-22T14:32:46.860Z,15.17
2017-11-22T14:35:14.467Z,17.70
2017-11-22T14:37:42.023Z,19.67
2017-11-22T14:40:09.622Z,15.00
2017-11-22T14:42:37.176Z,15.83
2017-11-22T14:45:04.751Z,12.33
2017-11-22T14:47:32.306Z,13.00
2017-11-22T14:49:59.862Z,21.37
2017-11-22T14:52:27.462Z,10.23
2017-11-22T14:54:55.811Z,12.70
2017-11-22T14:57:23.372Z,10.63
2017-11-22T14:59:50.943Z,13.50
2017-11-22T15:02:18.515Z,11.63
2017-11-22T15:04:46.858Z,20.07
2017-11-22T15:07:14.451Z,11.83
2017-11-22T15:09:42.800Z,15.43
2017-11-22T15:12:10.396Z,15.20
2017-11-22T15:14:38.759Z,12.90
2017-11-22T15:17:07.134Z,19.53
2017-11-22T15:19:34.720Z,19.23
2017-11-22T15:22:03.070Z,16.10
2017-11-22T15:24:30.648Z,12.30
2017-11-22T15:26:58.974Z,22.80
2017-11-22T15:29:26.602Z,18.70
2017-11-22T15:31:54.199Z,15.23
2017-11-22T15:34:21.765Z,16.97
2017-11-22T15:36:49.362Z,14.43
2017-11-22T15:39:17.692Z,13.67
2017-11-22T15:41:45.251Z,12.07
2017-11-22T15:44:12.869Z,12.83
2017-11-22T15:46:41.206Z,18.33
2017-11-22T15:49:08.788Z,21.00
2017-11-22T15:51:36.407Z,19.53
2017-11-22T15:54:03.974Z,18.77
2017-11-22T15:56:31.535Z,20.80
2017-11-22T15:59:00.132Z,18.07
2017-11-22T16:01:27.730Z,16.17
2017-11-22T16:03:56.090Z,17.47
2017-11-22T16:06:23.674Z,17.17
2017-11-22T16:08:52.010Z,17.23
2017-11-22T16:11:19.615Z,21.60
2017-11-22T16:13:48.175Z,17.47
2017-11-22T16:16:15.764Z,22.97
2017-11-22T16:18:44.158Z,17.43
2017-11-22T16:21:12.502Z,16.30
2017-11-22T16:23:40.094Z,20.87
2017-11-22T16:26:07.986Z,17.30
2017-11-22T16:28:35.547Z,19.53
2017-11-22T16:31:03.903Z,32.10
2017-11-22T16:33:31.462Z,19.53
2017-11-22T16:35:59.129Z,21.77
2017-11-22T16:38:26.711Z,24.30
2017-11-22T16:40:54.262Z,20.60
2017-11-22T16:43:21.825Z,17.10
2017-11-22T16:45:49.390Z,29.87
2017-11-22T16:48:16.963Z,24.57
2017-11-22T16:50:44.551Z,20.63
2017-11-22T16:53:12.126Z,16.07
2017-11-22T16:55:40.483Z,20.83
2017-11-22T16:58:08.168Z,13.90
2017-11-22T17:00:35.741Z,18.20
2017-11-22T17:03:05.216Z,18.60
2017-11-22T17:05:32.778Z,21.90
2017-11-22T17:08:00.320Z,14.40
2017-11-22T17:10:28.693Z,21.50
2017-11-22T17:12:56.266Z,19.87
2017-11-22T17:15:23.861Z,16.87
2017-11-22T17:17:51.450Z,19.13
2017-11-22T17:20:19.063Z,13.87
2017-11-22T17:22:46.654Z,19.80
2017-11-22T17:25:14.236Z,19.33
2017-11-22T17:27:42.569Z,14.93
2017-11-22T17:30:10.146Z,24.23
2017-11-22T17:32:37.745Z,17.17
2017-11-22T17:35:05.337Z,18.03
2017-11-22T17:37:32.913Z,20.73
2017-11-22T17:40:00.525Z,15.47
2017-11-22T17:42:28.116Z,23.30
2017-11-22T17:44:55.706Z,20.23
2017-11-22T17:47:23.266Z,19.93
2017-11-22T17:49:50.880Z,19.80
2017-11-22T17:52:18.681Z,24.80
2017-11-22T17:54:46.353Z,25.10
2017-11-22T17:57:13.919Z,32.50
2017-11-22T17:59:41.489Z,40.47
2017-11-22T18:02:09.847Z,33.50
2017-11-22T18:04:37.426Z,32.20
2017-11-22T18:07:04.978Z,24.90
2017-11-22T18:09:32.583Z,23.67
2017-11-22T18:12:00.142Z,27.73
2017-11-22T18:14:27.717Z,23.23
2017-11-22T18:16:55.386Z,17.00
2017-11-22T18:19:22.992Z,19.10
2017-11-22T18:21:50.540Z,14.77
2017-11-22T18:24:18.133Z,17.67
2017-11-22T18:26:46.641Z,16.43
2017-11-22T18:29:14.346Z,18.40
2017-11-22T18:31:43.429Z,23.10
2017-11-22T18:34:11.004Z,20.33
2017-11-22T18:36:38.589Z,26.73
2017-11-22T18:39:06.948Z,18.57
2017-11-22T18:41:34.655Z,29.43
2017-11-22T18:44:02.240Z,19.63
2017-11-22T18:46:29.837Z,19.80
2017-11-22T18:48:57.603Z,18.07
2017-11-22T18:51:26.012Z,22.77
2017-11-22T18:53:54.009Z,20.37
2017-11-22T18:56:21.611Z,21.23
2017-11-22T18:58:49.173Z,19.17
2017-11-22T19:01:17.624Z,21.73
2017-11-22T19:03:45.265Z,17.63
2017-11-22T19:06:14.681Z,23.67
2017-11-22T19:08:42.479Z,19.87
2017-11-22T19:11:12.140Z,18.57
2017-11-22T19:13:40.669Z,29.70
2017-11-22T19:16:08.607Z,37.87
2017-11-22T19:18:36.820Z,32.83
2017-11-22T19:21:06.400Z,29.10
2017-11-22T19:23:34.662Z,26.40
2017-11-22T19:26:02.893Z,29.67
2017-11-22T19:28:30.956Z,21.87
2017-11-22T19:31:00.327Z,17.87
2017-11-22T19:33:29.382Z,17.67
2017-11-22T19:35:58.852Z,162.07
2017-11-22T19:38:26.564Z,343.53
2017-11-22T19:40:54.176Z,143.57
2017-11-22T19:43:22.185Z,95.32
2017-11-22T19:45:50.489Z,58.97
2017-11-22T19:48:20.444Z,53.28
2017-11-22T19:50:48.809Z,43.13
2017-11-22T19:53:17.197Z,49.85
2017-11-22T19:55:45.963Z,61.85
2017-11-22T19:58:13.654Z,67.47
2017-11-22T20:00:42.039Z,44.93
2017-11-22T20:03:10.119Z,31.73
2017-11-22T20:05:38.090Z,28.10
2017-11-22T20:08:18.673Z,26.08
2017-11-22T20:10:48.260Z,24.45
2017-11-22T20:13:17.338Z,17.62
2017-11-22T20:15:47.466Z,21.75
2017-11-22T20:18:16.273Z,26.70
2017-11-22T20:20:45.281Z,19.23
2017-11-22T20:23:13.470Z,17.73
2017-11-22T20:25:42.608Z,17.80
2017-11-22T20:28:11.480Z,17.92
2017-11-22T20:30:40.951Z,18.48
2017-11-22T20:33:09.415Z,21.58
2017-11-22T20:35:38.142Z,18.75
2017-11-22T20:38:05.717Z,21.25
2017-11-22T20:40:34.060Z,25.27
2017-11-22T20:43:02.889Z,20.83
2017-11-22T20:45:31.917Z,25.45
2017-11-22T20:47:59.881Z,16.58
2017-11-22T20:50:28.189Z,14.98
2017-11-22T20:52:56.257Z,14.98
2017-11-22T20:55:24.931Z,13.13
2017-11-22T20:57:53.710Z,17.58
2017-11-22T21:00:22.100Z,15.00
2017-11-22T21:02:51.066Z,15.13
2017-11-22T21:05:19.704Z,19.73
2017-11-22T21:07:47.311Z,20.30
2017-11-22T21:10:15.431Z,20.60
2017-11-22T21:12:44.270Z,16.25
2017-11-22T21:15:12.744Z,18.70
2017-11-22T21:17:42.651Z,18.40
2017-11-22T21:20:10.915Z,17.02
2017-11-22T21:22:38.711Z,18.20
2017-11-22T21:25:07.749Z,17.23
2017-11-22T21:27:36.152Z,20.35
2017-11-22T21:30:04.154Z,13.95
2017-11-22T21:32:32.445Z,15.68
2017-11-22T21:35:00.534Z,17.20
2017-11-22T21:37:28.943Z,16.65
2017-11-22T21:39:56.745Z,19.15
2017-11-22T21:42:25.398Z,14.60
2017-11-22T21:44:53.834Z,18.73
2017-11-22T21:47:22.613Z,17.62
2017-11-22T21:49:51.383Z,18.55
2017-11-22T21:52:20.024Z,15.13
2017-11-22T21:54:47.851Z,17.55
2017-11-22T21:57:15.705Z,19.52
2017-11-22T21:59:43.468Z,28.67
2017-11-22T22:02:11.028Z,32.00
2017-11-22T22:04:38.872Z,27.42
2017-11-22T22:07:07.784Z,23.27
2017-11-22T22:09:36.046Z,20.88
2017-11-22T22:12:04.279Z,17.80
2017-11-22T22:14:33.181Z,19.58
2017-11-22T22:17:01.986Z,14.27
2017-11-22T22:19:30.079Z,20.50
2017-11-22T22:21:57.762Z,24.15
2017-11-22T22:24:25.339Z,25.77
2017-11-22T22:26:52.919Z,27.70
2017-11-22T22:29:21.270Z,32.20
2017-11-22T22:31:48.833Z,23.60
2017-11-22T22:34:16.387Z,19.00
2017-11-22T22:36:44.000Z,19.20
2017-11-22T22:39:12.320Z,21.25
2017-11-22T22:41:39.868Z,19.58
2017-11-22T22:44:07.416Z,15.80
2017-11-22T22:46:34.993Z,15.35
2017-11-22T22:49:02.546Z,17.42
2017-11-22T22:51:30.096Z,13.45
2017-11-22T22:53:57.666Z,15.32
2017-11-22T22:56:25.224Z,12.30
2017-11-22T22:58:52.776Z,14.00
2017-11-22T23:01:20.343Z,15.82
2017-11-22T23:03:47.903Z,12.63
2017-11-22T23:06:15.471Z,8.85
2017-11-22T23:08:43.037Z,13.30
2017-11-22T23:11:10.603Z,9.73
2017-11-22T23:13:38.186Z,11.52
2017-11-22T23:16:05.740Z,11.65
2017-11-22T23:18:33.306Z,13.82
2017-11-22T23:21:00.894Z,11.43
2017-11-22T23:23:29.246Z,12.15
2017-11-22T23:25:56.834Z,13.23
2017-11-22T23:28:25.197Z,15.73
2017-11-22T23:30:52.739Z,19.95
2017-11-22T23:33:20.295Z,16.17
2017-11-22T23:35:47.861Z,15.45
2017-11-22T23:38:15.416Z,12.07
2017-11-22T23:40:43.019Z,12.13
2017-11-22T23:43:11.343Z,14.07
2017-11-22T23:45:38.928Z,11.90
2017-11-22T23:48:06.506Z,9.88
2017-11-22T23:50:34.864Z,13.30
2017-11-22T23:53:02.419Z,10.95
2017-11-22T23:55:29.977Z,12.20
2017-11-22T23:57:57.549Z,13.82
